createdAt,value
2023-05-15T00:00:59.058Z,91.98
2023-05-15T00:03:27.052Z,92.90
2023-05-15T00:05:55.385Z,94.06
2023-05-15T00:08:23.516Z,93.70
2023-05-15T00:11:01.546Z,92.56
2023-05-15T00:13:30.175Z,95.63
2023-05-15T00:15:58.460Z,96.11
2023-05-15T00:18:27.560Z,96.18
2023-05-15T00:20:55.591Z,93.70
2023-05-15T00:23:23.567Z,95.15
2023-05-15T00:25:54.292Z,95.77
2023-05-15T00:28:22.171Z,95.42
2023-05-15T00:30:50.145Z,95.92
2023-05-15T00:33:18.056Z,97.84
2023-05-15T00:35:46.783Z,94.02
2023-05-15T00:38:14.816Z,92.63
2023-05-15T00:40:44.506Z,91.60
2023-05-15T00:43:17.026Z,89.25
2023-05-15T00:45:45.936Z,91.32
2023-05-15T00:48:14.607Z,94.77
2023-05-15T00:50:43.947Z,96.27
2023-05-15T00:53:12.451Z,98.25
2023-05-15T00:55:41.698Z,98.58
2023-05-15T00:58:11.881Z,99.75
2023-05-15T01:00:41.767Z,99.50
2023-05-15T01:03:10.459Z,100.00
2023-05-15T01:05:38.653Z,100.00
2023-05-15T01:08:21.645Z,100.00
2023-05-15T01:10:53.114Z,99.57
2023-05-15T01:13:22.902Z,100.00
2023-05-15T01:15:52.242Z,100.00
2023-05-15T01:18:21.771Z,100.00
2023-05-15T01:21:07.784Z,100.00
2023-05-15T01:23:54.685Z,100.00
2023-05-15T01:26:48.582Z,99.26
2023-05-15T01:29:24.104Z,99.90
2023-05-15T01:31:56.793Z,99.21
2023-05-15T01:34:31.106Z,100.00
2023-05-15T01:37:01.267Z,100.00
2023-05-15T01:39:33.737Z,100.00
2023-05-15T01:42:07.555Z,100.00
2023-05-15T01:44:39.320Z,100.00
2023-05-15T01:47:11.457Z,100.00
2023-05-15T01:49:40.519Z,100.00
2023-05-15T01:52:14.323Z,100.00
2023-05-15T01:54:43.466Z,100.00
2023-05-15T01:57:11.574Z,100.00
2023-05-15T01:59:42.884Z,100.00
2023-05-15T02:02:12.301Z,100.00
2023-05-15T02:04:42.521Z,100.00
2023-05-15T02:07:11.280Z,100.00
2023-05-15T02:09:40.179Z,100.00
2023-05-15T02:12:09.388Z,100.00
2023-05-15T02:14:38.424Z,100.00
2023-05-15T02:17:08.307Z,100.00
2023-05-15T02:19:36.430Z,100.00
2023-05-15T02:22:07.267Z,100.00
2023-05-15T02:24:35.143Z,100.00
2023-05-15T02:27:10.479Z,100.00
2023-05-15T02:29:46.824Z,100.00
2023-05-15T02:32:22.135Z,100.00
2023-05-15T02:34:58.069Z,100.00
2023-05-15T02:37:32.251Z,100.00
2023-05-15T02:40:02.141Z,100.00
2023-05-15T02:42:30.958Z,100.00
2023-05-15T02:44:59.468Z,100.00
2023-05-15T02:47:30.116Z,100.00
2023-05-15T02:49:58.576Z,100.00
2023-05-15T02:52:26.543Z,100.00
2023-05-15T02:54:54.832Z,100.00
2023-05-15T02:57:22.725Z,100.00
2023-05-15T02:59:50.827Z,100.00
2023-05-15T03:02:18.844Z,100.00
2023-05-15T03:04:48.393Z,100.00
2023-05-15T03:07:16.269Z,100.00
2023-05-15T03:09:44.375Z,100.00
2023-05-15T03:12:12.508Z,100.00
2023-05-15T03:14:40.446Z,100.00
2023-05-15T03:17:08.406Z,100.00
2023-05-15T03:19:36.405Z,100.00
2023-05-15T03:22:07.087Z,100.00
2023-05-15T03:24:34.966Z,100.00
2023-05-15T03:27:02.886Z,100.00
2023-05-15T03:29:30.788Z,100.00
2023-05-15T03:31:58.746Z,100.00
2023-05-15T03:34:26.728Z,100.00
2023-05-15T03:36:54.582Z,100.00
2023-05-15T03:39:23.885Z,100.00
2023-05-15T03:41:51.813Z,100.00
2023-05-15T03:44:19.692Z,100.00
2023-05-15T03:46:48.140Z,100.00
2023-05-15T03:49:16.025Z,100.00
2023-05-15T03:51:43.942Z,100.00
2023-05-15T03:54:12.070Z,100.00
2023-05-15T03:56:41.484Z,100.00
2023-05-15T03:59:10.020Z,100.00
2023-05-15T04:01:47.547Z,100.00
2023-05-15T04:04:26.360Z,100.00
2023-05-15T04:06:54.245Z,100.00
2023-05-15T04:09:22.135Z,100.00
2023-05-15T04:11:51.563Z,100.00
2023-05-15T04:14:19.425Z,100.00
2023-05-15T04:16:47.625Z,100.00
2023-05-15T04:19:15.585Z,100.00
2023-05-15T04:21:43.498Z,100.00
2023-05-15T04:24:11.388Z,100.00
2023-05-15T04:26:39.369Z,100.00
2023-05-15T04:29:09.385Z,100.00
2023-05-15T04:31:38.339Z,100.00
2023-05-15T04:34:06.343Z,100.00
2023-05-15T04:36:34.884Z,100.00
2023-05-15T04:39:02.967Z,100.00
2023-05-15T04:41:33.126Z,100.00
2023-05-15T04:44:00.958Z,100.00
2023-05-15T04:46:34.633Z,100.00
2023-05-15T04:49:02.657Z,100.00
2023-05-15T04:51:30.902Z,100.00
2023-05-15T04:53:58.837Z,100.00
2023-05-15T04:56:28.460Z,100.00
2023-05-15T04:58:56.358Z,99.50
2023-05-15T05:01:24.384Z,93.13
2023-05-15T05:03:54.353Z,92.44
2023-05-15T05:06:24.915Z,90.79
2023-05-15T05:08:52.889Z,89.40
2023-05-15T05:11:21.554Z,88.07
2023-05-15T05:13:49.888Z,88.31
2023-05-15T05:16:18.034Z,88.62
2023-05-15T05:18:46.033Z,90.08
2023-05-15T05:21:16.020Z,88.65
2023-05-15T05:23:43.964Z,89.09
2023-05-15T05:26:11.893Z,88.98
2023-05-15T05:28:39.762Z,88.95
2023-05-15T05:31:08.711Z,88.67
2023-05-15T05:33:36.590Z,87.45
2023-05-15T05:36:05.164Z,86.07
2023-05-15T05:38:34.640Z,86.25
2023-05-15T05:41:03.038Z,83.82
2023-05-15T05:43:33.249Z,83.08
2023-05-15T05:46:01.190Z,82.78
2023-05-15T05:48:29.083Z,82.15
2023-05-15T05:50:57.077Z,83.36
2023-05-15T05:53:25.207Z,83.13
2023-05-15T05:55:55.287Z,83.90
2023-05-15T05:58:25.900Z,83.21
2023-05-15T06:00:54.576Z,82.71
2023-05-15T06:03:22.890Z,82.75
2023-05-15T06:05:51.200Z,81.50
2023-05-15T06:08:19.578Z,81.16
2023-05-15T06:10:48.240Z,82.43
2023-05-15T06:13:18.228Z,81.53
2023-05-15T06:15:47.254Z,80.41
2023-05-15T06:18:15.250Z,79.74
2023-05-15T06:20:43.803Z,78.05
2023-05-15T06:23:11.806Z,75.87
2023-05-15T06:25:39.984Z,75.31
2023-05-15T06:28:08.088Z,72.93
2023-05-15T06:30:37.366Z,68.90
2023-05-15T06:33:05.424Z,68.87
2023-05-15T06:35:33.383Z,68.87
2023-05-15T06:38:01.892Z,68.96
2023-05-15T06:40:29.978Z,70.63
2023-05-15T06:42:58.670Z,69.88
2023-05-15T06:45:27.685Z,67.78
2023-05-15T06:48:00.748Z,69.37
2023-05-15T06:50:29.772Z,71.06
2023-05-15T06:52:57.748Z,68.73
2023-05-15T06:55:25.803Z,68.97
2023-05-15T06:57:53.994Z,68.21
2023-05-15T07:00:22.300Z,67.21
2023-05-15T07:02:50.293Z,66.16
2023-05-15T07:05:19.729Z,64.69
2023-05-15T07:07:47.650Z,64.82
2023-05-15T07:10:15.598Z,65.26
2023-05-15T07:12:43.492Z,64.93
2023-05-15T07:15:11.990Z,65.25
2023-05-15T07:17:39.963Z,64.84
2023-05-15T07:20:08.809Z,66.62
2023-05-15T07:22:44.920Z,67.36
2023-05-15T07:25:20.307Z,68.67
2023-05-15T07:27:48.206Z,66.89
2023-05-15T07:30:16.537Z,63.76
2023-05-15T07:32:44.613Z,63.39
2023-05-15T07:35:12.674Z,64.93
2023-05-15T07:37:42.040Z,66.49
2023-05-15T07:40:11.092Z,66.07
2023-05-15T07:42:39.614Z,64.32
2023-05-15T07:45:09.377Z,62.07
2023-05-15T07:47:37.394Z,62.43
2023-05-15T07:50:11.060Z,61.38
2023-05-15T07:52:39.252Z,60.88
2023-05-15T07:55:12.547Z,58.31
2023-05-15T07:57:41.351Z,57.09
2023-05-15T08:00:13.430Z,56.54
2023-05-15T08:02:46.141Z,55.50
2023-05-15T08:05:14.638Z,55.47
2023-05-15T08:07:42.647Z,55.77
2023-05-15T08:10:14.280Z,55.57
2023-05-15T08:12:46.450Z,55.58
2023-05-15T08:15:14.978Z,55.87
2023-05-15T08:17:43.035Z,55.91
2023-05-15T08:20:12.245Z,56.27
2023-05-15T08:22:40.277Z,56.00
2023-05-15T08:25:09.230Z,57.26
2023-05-15T08:27:39.289Z,55.74
2023-05-15T08:30:08.550Z,55.49
2023-05-15T08:32:36.725Z,55.46
2023-05-15T08:35:05.176Z,54.88
2023-05-15T08:37:33.715Z,55.73
2023-05-15T08:40:01.797Z,55.31
2023-05-15T08:42:34.528Z,54.91
2023-05-15T08:45:04.110Z,56.00
2023-05-15T08:47:39.696Z,57.39
2023-05-15T08:50:11.114Z,57.63
2023-05-15T08:52:41.878Z,57.04
2023-05-15T08:55:10.965Z,58.92
2023-05-15T08:57:39.654Z,57.98
2023-05-15T09:00:14.404Z,57.24
2023-05-15T09:02:43.535Z,58.53
2023-05-15T09:05:12.036Z,58.07
2023-05-15T09:07:41.141Z,56.00
2023-05-15T09:10:10.799Z,55.86
2023-05-15T09:12:44.154Z,54.21
2023-05-15T09:15:17.161Z,55.45
2023-05-15T09:17:46.586Z,55.16
2023-05-15T09:20:30.916Z,54.27
2023-05-15T09:23:00.027Z,54.88
2023-05-15T09:25:35.902Z,54.25
2023-05-15T09:28:04.070Z,54.36
2023-05-15T09:30:34.734Z,54.04
2023-05-15T09:33:04.732Z,54.21
2023-05-15T09:35:33.927Z,55.07
2023-05-15T09:38:02.901Z,55.69
2023-05-15T09:40:32.067Z,54.11
2023-05-15T09:43:00.476Z,55.51
2023-05-15T09:45:30.237Z,56.64
2023-05-15T09:48:02.576Z,57.46
2023-05-15T09:50:35.346Z,57.74
2023-05-15T09:53:03.908Z,59.09
2023-05-15T09:55:33.834Z,60.84
2023-05-15T09:58:06.642Z,60.99
2023-05-15T10:00:34.736Z,61.36
2023-05-15T10:03:05.553Z,61.94
2023-05-15T10:05:43.212Z,60.64
2023-05-15T10:08:12.510Z,60.93
2023-05-15T10:10:40.644Z,60.05
2023-05-15T10:13:10.013Z,59.59
2023-05-15T10:15:39.171Z,59.52
2023-05-15T10:18:09.461Z,58.19
2023-05-15T10:20:38.701Z,58.85
2023-05-15T10:23:06.875Z,58.38
2023-05-15T10:25:42.750Z,58.05
2023-05-15T10:28:12.377Z,58.89
2023-05-15T10:30:40.293Z,57.94
2023-05-15T10:33:12.500Z,58.99
2023-05-15T10:35:40.991Z,59.80
2023-05-15T10:38:09.395Z,61.32
2023-05-15T10:40:38.800Z,62.45
2023-05-15T10:43:06.923Z,62.35
2023-05-15T10:45:36.769Z,64.64
2023-05-15T10:48:07.770Z,66.38
2023-05-15T10:50:39.871Z,67.00
2023-05-15T10:53:10.088Z,74.29
2023-05-15T10:55:38.569Z,77.00
2023-05-15T10:58:10.689Z,76.06
2023-05-15T11:00:44.051Z,74.47
2023-05-15T11:03:15.657Z,76.40
2023-05-15T11:06:10.930Z,72.64
2023-05-15T11:08:40.558Z,64.68
2023-05-15T11:11:08.587Z,66.23
2023-05-15T11:14:12.993Z,64.42
2023-05-15T11:17:05.409Z,61.67
2023-05-15T11:19:36.123Z,62.32
2023-05-15T11:22:19.843Z,63.48
2023-05-15T11:24:53.268Z,62.20
2023-05-15T11:27:23.197Z,61.50
2023-05-15T11:30:11.371Z,58.29
2023-05-15T11:32:50.417Z,56.85
2023-05-15T11:35:23.979Z,51.24
2023-05-15T11:37:54.879Z,48.13
2023-05-15T11:40:25.973Z,47.40
2023-05-15T11:43:05.969Z,51.14
2023-05-15T11:45:36.411Z,48.57
2023-05-15T11:48:06.480Z,46.95
2023-05-15T11:50:36.414Z,46.07
2023-05-15T11:53:07.812Z,44.24
2023-05-15T11:55:37.313Z,40.41
2023-05-15T11:58:05.782Z,37.82
2023-05-15T12:00:33.848Z,39.15
2023-05-15T12:03:03.712Z,37.09
2023-05-15T12:05:32.175Z,36.40
2023-05-15T12:08:00.167Z,36.71
2023-05-15T12:10:31.322Z,35.95
2023-05-15T12:13:00.180Z,32.95
2023-05-15T12:15:28.206Z,32.36
2023-05-15T12:17:56.250Z,33.71
2023-05-15T12:20:24.400Z,37.97
2023-05-15T12:22:52.512Z,35.88
2023-05-15T12:25:20.549Z,38.62
2023-05-15T12:27:49.963Z,40.45
2023-05-15T12:30:18.488Z,41.50
2023-05-15T12:32:46.752Z,40.78
2023-05-15T12:35:14.864Z,39.49
2023-05-15T12:37:43.229Z,41.55
2023-05-15T12:40:12.338Z,41.79
2023-05-15T12:42:41.839Z,41.51
2023-05-15T12:45:18.680Z,38.95
2023-05-15T12:47:48.864Z,37.56
2023-05-15T12:50:18.728Z,37.60
2023-05-15T12:52:54.541Z,36.70
2023-05-15T12:55:27.494Z,34.51
2023-05-15T12:57:58.609Z,34.36
2023-05-15T13:00:31.810Z,33.65
2023-05-15T13:03:02.864Z,32.10
2023-05-15T13:05:33.617Z,31.13
2023-05-15T13:08:03.066Z,35.33
2023-05-15T13:10:34.402Z,37.20
2023-05-15T13:13:03.055Z,36.74
2023-05-15T13:15:35.234Z,36.69
2023-05-15T13:18:04.823Z,33.60
2023-05-15T13:20:35.359Z,34.36
2023-05-15T13:23:03.987Z,34.20
2023-05-15T13:25:33.338Z,35.28
2023-05-15T13:28:03.535Z,36.45
2023-05-15T13:30:34.037Z,37.09
2023-05-15T13:33:02.269Z,38.01
2023-05-15T13:35:30.581Z,42.36
2023-05-15T13:37:58.608Z,46.21
2023-05-15T13:40:27.333Z,48.79
2023-05-15T13:42:55.587Z,50.42
2023-05-15T13:45:23.711Z,51.55
2023-05-15T13:47:53.337Z,52.80
2023-05-15T13:50:21.801Z,53.85
2023-05-15T13:52:50.122Z,57.88
2023-05-15T13:55:22.761Z,60.30
2023-05-15T13:57:52.067Z,63.54
2023-05-15T14:00:21.686Z,65.72
2023-05-15T14:02:49.711Z,68.97
2023-05-15T14:05:19.486Z,72.89
2023-05-15T14:07:47.844Z,71.94
2023-05-15T14:10:17.518Z,70.95
2023-05-15T14:12:46.713Z,72.16
2023-05-15T14:15:14.804Z,75.78
2023-05-15T14:17:43.377Z,82.27
2023-05-15T14:20:12.561Z,85.27
2023-05-15T14:22:42.260Z,86.72
2023-05-15T14:25:10.701Z,88.46
2023-05-15T14:27:38.679Z,88.49
2023-05-15T14:30:08.101Z,89.37
2023-05-15T14:32:36.422Z,91.76
2023-05-15T14:35:04.811Z,93.95
2023-05-15T14:37:32.972Z,94.73
2023-05-15T14:40:02.439Z,94.67
2023-05-15T14:42:30.608Z,93.20
2023-05-15T14:44:58.528Z,93.64
2023-05-15T14:47:28.171Z,94.90
2023-05-15T14:49:56.417Z,94.41
2023-05-15T14:52:24.297Z,92.99
2023-05-15T14:55:04.874Z,93.82
2023-05-15T14:57:37.832Z,90.94
2023-05-15T15:00:08.430Z,87.40
2023-05-15T15:02:36.721Z,87.15
2023-05-15T15:05:05.771Z,86.33
2023-05-15T15:08:01.120Z,87.22
2023-05-15T15:10:29.491Z,91.11
2023-05-15T15:12:59.321Z,91.18
2023-05-15T15:15:27.694Z,92.93
2023-05-15T15:17:56.602Z,89.65
2023-05-15T15:20:26.403Z,90.70
2023-05-15T15:22:55.523Z,92.92
2023-05-15T15:25:23.511Z,92.44
2023-05-15T15:27:51.668Z,90.64
2023-05-15T15:30:21.138Z,89.65
2023-05-15T15:32:49.215Z,90.21
2023-05-15T15:35:17.362Z,89.55
2023-05-15T15:37:45.301Z,85.97
2023-05-15T15:40:13.683Z,83.37
2023-05-15T15:42:41.800Z,82.81
2023-05-15T15:45:10.008Z,79.96
2023-05-15T15:47:39.553Z,80.19
2023-05-15T15:50:08.264Z,78.35
2023-05-15T15:52:36.271Z,79.73
2023-05-15T15:55:04.487Z,76.81
2023-05-15T15:57:33.971Z,78.20
2023-05-15T16:00:02.098Z,79.49
2023-05-15T16:02:33.231Z,79.96
2023-05-15T16:05:02.828Z,79.40
2023-05-15T16:07:30.874Z,79.32
2023-05-15T16:10:11.537Z,79.05
2023-05-15T16:12:42.170Z,78.77
2023-05-15T16:15:21.708Z,78.81
2023-05-15T16:17:53.760Z,79.69
2023-05-15T16:20:24.391Z,77.97
2023-05-15T16:22:53.077Z,79.05
2023-05-15T16:25:21.305Z,79.33
2023-05-15T16:27:49.269Z,79.38
2023-05-15T16:30:17.296Z,78.03
2023-05-15T16:32:45.260Z,73.82
2023-05-15T16:35:13.494Z,72.65
2023-05-15T16:37:42.909Z,71.15
2023-05-15T16:40:11.575Z,72.12
2023-05-15T16:42:41.172Z,71.95
2023-05-15T16:45:09.997Z,72.08
2023-05-15T16:47:39.421Z,71.05
2023-05-15T16:50:08.504Z,70.92
2023-05-15T16:52:38.506Z,69.62
2023-05-15T16:55:09.229Z,68.75
2023-05-15T16:57:37.228Z,68.72
2023-05-15T17:00:08.404Z,67.57
2023-05-15T17:02:36.463Z,66.66
2023-05-15T17:05:04.736Z,64.80
2023-05-15T17:07:33.760Z,63.61
2023-05-15T17:10:01.791Z,63.85
2023-05-15T17:12:32.041Z,62.33
2023-05-15T17:15:00.015Z,62.52
2023-05-15T17:17:28.612Z,62.33
2023-05-15T17:19:57.466Z,62.97
2023-05-15T17:22:25.721Z,63.24
2023-05-15T17:24:53.987Z,63.09
2023-05-15T17:27:22.105Z,64.29
2023-05-15T17:29:55.036Z,63.69
2023-05-15T17:32:23.189Z,63.84
2023-05-15T17:34:51.716Z,64.46
2023-05-15T17:37:19.843Z,65.61
2023-05-15T17:39:47.833Z,65.20
2023-05-15T17:42:15.750Z,65.42
2023-05-15T17:44:43.669Z,65.73
2023-05-15T17:47:13.147Z,65.81
2023-05-15T17:49:41.158Z,65.80
2023-05-15T17:52:09.151Z,64.65
2023-05-15T17:54:37.201Z,65.91
2023-05-15T17:57:05.839Z,66.41
2023-05-15T17:59:33.824Z,67.17
2023-05-15T18:02:02.489Z,67.80
2023-05-15T18:04:32.080Z,67.07
2023-05-15T18:07:00.092Z,67.70
2023-05-15T18:09:28.088Z,67.02
2023-05-15T18:11:56.070Z,67.32
2023-05-15T18:14:24.086Z,68.09
2023-05-15T18:16:52.049Z,68.03
2023-05-15T18:19:20.230Z,68.75
2023-05-15T18:21:49.644Z,69.39
2023-05-15T18:24:17.582Z,69.57
2023-05-15T18:26:45.697Z,70.24
2023-05-15T18:29:13.797Z,71.22
2023-05-15T18:31:41.934Z,71.62
2023-05-15T18:34:09.994Z,71.30
2023-05-15T18:36:37.946Z,71.14
2023-05-15T18:39:07.401Z,71.60
2023-05-15T18:41:35.355Z,71.34
2023-05-15T18:44:03.321Z,71.08
2023-05-15T18:46:31.754Z,71.81
2023-05-15T18:48:59.835Z,72.09
2023-05-15T18:51:28.088Z,71.74
2023-05-15T18:53:56.210Z,71.47
2023-05-15T18:56:25.997Z,72.37
2023-05-15T18:58:55.388Z,71.20
2023-05-15T19:01:23.404Z,70.82
2023-05-15T19:03:51.535Z,70.80
2023-05-15T19:06:20.158Z,70.02
2023-05-15T19:08:49.166Z,69.59
2023-05-15T19:11:17.649Z,69.61
2023-05-15T19:13:47.031Z,69.23
2023-05-15T19:16:15.449Z,69.08
2023-05-15T19:18:43.612Z,69.01
2023-05-15T19:21:11.880Z,69.75
2023-05-15T19:23:39.773Z,70.34
2023-05-15T19:26:07.691Z,71.46
2023-05-15T19:28:35.952Z,71.22
2023-05-15T19:31:06.265Z,72.21
2023-05-15T19:33:36.523Z,72.61
2023-05-15T19:36:04.847Z,73.76
2023-05-15T19:38:32.753Z,73.28
2023-05-15T19:41:00.954Z,74.38
2023-05-15T19:43:28.883Z,75.28
2023-05-15T19:45:56.824Z,75.88
2023-05-15T19:48:26.177Z,77.27
2023-05-15T19:50:54.319Z,78.39
2023-05-15T19:53:22.508Z,80.79
2023-05-15T19:55:50.988Z,81.92
2023-05-15T19:58:20.863Z,83.75
2023-05-15T20:00:52.568Z,84.90
2023-05-15T20:03:21.170Z,86.75
2023-05-15T20:05:52.244Z,88.27
2023-05-15T20:08:20.495Z,88.79
2023-05-15T20:10:52.013Z,89.72
2023-05-15T20:13:20.485Z,90.32
2023-05-15T20:15:48.760Z,90.85
2023-05-15T20:18:17.367Z,91.02
2023-05-15T20:20:46.130Z,91.29
2023-05-15T20:23:15.720Z,90.32
2023-05-15T20:25:43.774Z,91.29
2023-05-15T20:28:11.768Z,91.24
2023-05-15T20:30:40.412Z,91.51
2023-05-15T20:33:08.422Z,91.57
2023-05-15T20:35:37.072Z,92.13
2023-05-15T20:38:05.234Z,91.83
2023-05-15T20:40:34.649Z,91.99
2023-05-15T20:43:02.840Z,92.37
2023-05-15T20:45:32.099Z,92.30
2023-05-15T20:48:00.202Z,92.13
2023-05-15T20:50:28.638Z,92.59
2023-05-15T20:52:56.744Z,92.17
2023-05-15T20:55:24.678Z,90.69
2023-05-15T20:57:54.244Z,91.27
2023-05-15T21:00:22.235Z,90.72
2023-05-15T21:02:50.147Z,90.57
2023-05-15T21:05:18.409Z,90.62
2023-05-15T21:07:46.437Z,90.63
2023-05-15T21:10:14.367Z,91.09
2023-05-15T21:12:42.472Z,90.29
2023-05-15T21:15:13.068Z,90.87
2023-05-15T21:17:40.997Z,91.45
2023-05-15T21:20:10.507Z,90.81
2023-05-15T21:22:39.003Z,91.08
2023-05-15T21:25:07.877Z,92.13
2023-05-15T21:27:35.776Z,92.14
2023-05-15T21:30:03.887Z,92.31
2023-05-15T21:32:33.628Z,92.76
2023-05-15T21:35:01.573Z,92.79
2023-05-15T21:37:29.536Z,92.98
2023-05-15T21:39:57.451Z,92.66
2023-05-15T21:42:26.389Z,93.05
2023-05-15T21:44:54.365Z,93.04
2023-05-15T21:47:22.378Z,91.98
2023-05-15T21:49:52.028Z,91.43
2023-05-15T21:52:19.936Z,91.66
2023-05-15T21:54:48.149Z,91.48
2023-05-15T21:57:16.192Z,91.67
2023-05-15T21:59:44.180Z,92.82
2023-05-15T22:02:12.253Z,93.13
2023-05-15T22:04:40.272Z,93.53
2023-05-15T22:07:09.770Z,94.14
2023-05-15T22:09:37.958Z,93.78
2023-05-15T22:12:06.471Z,94.36
2023-05-15T22:14:35.144Z,94.80
2023-05-15T22:17:03.130Z,95.01
2023-05-15T22:19:33.493Z,95.49
2023-05-15T22:22:01.912Z,96.15
2023-05-15T22:24:31.286Z,95.13
2023-05-15T22:26:59.622Z,95.47
2023-05-15T22:29:27.604Z,95.62
2023-05-15T22:31:55.550Z,95.99
2023-05-15T22:34:25.232Z,96.02
2023-05-15T22:39:21.944Z,96.45
2023-05-15T22:41:53.024Z,96.71
2023-05-15T22:44:20.892Z,96.00
2023-05-15T22:46:49.593Z,97.28
2023-05-15T22:49:25.131Z,97.36
2023-05-15T22:51:53.221Z,96.81
2023-05-15T22:54:21.741Z,96.65
2023-05-15T22:56:52.218Z,97.41
2023-05-15T22:59:20.299Z,98.36
2023-05-15T23:01:49.139Z,99.43
2023-05-15T23:04:17.907Z,99.98
2023-05-15T23:06:46.035Z,100.00
2023-05-15T23:09:14.122Z,100.00
2023-05-15T23:11:41.955Z,100.00
2023-05-15T23:14:11.956Z,100.00
2023-05-15T23:16:39.930Z,100.00
2023-05-15T23:19:07.874Z,100.00
2023-05-15T23:21:36.109Z,100.00
2023-05-15T23:24:04.149Z,100.00
2023-05-15T23:26:32.024Z,100.00
2023-05-15T23:29:00.220Z,100.00
2023-05-15T23:31:29.567Z,100.00
2023-05-15T23:33:57.551Z,100.00
2023-05-15T23:36:25.398Z,100.00
2023-05-15T23:38:53.401Z,100.00
2023-05-15T23:41:21.966Z,100.00
2023-05-15T23:43:50.601Z,100.00
2023-05-15T23:46:18.696Z,100.00
2023-05-15T23:48:48.703Z,100.00
2023-05-15T23:51:16.571Z,100.00
2023-05-15T23:53:44.504Z,100.00
2023-05-15T23:56:12.431Z,100.00
2023-05-15T23:58:41.313Z,100.00
